createdAt,value
2023-02-23T00:00:45.844Z,0
2023-02-23T00:01:45.869Z,0
2023-02-23T00:02:46.252Z,0
2023-02-23T00:03:46.204Z,0
2023-02-23T00:04:45.866Z,0
2023-02-23T00:05:48.744Z,0
2023-02-23T00:06:46.232Z,0
2023-02-23T00:07:45.889Z,0
2023-02-23T00:08:45.906Z,0
2023-02-23T00:09:45.892Z,0
2023-02-23T00:10:48.980Z,0
2023-02-23T00:11:45.882Z,0
2023-02-23T00:12:45.914Z,0
2023-02-23T00:13:45.919Z,0
2023-02-23T00:14:45.918Z,0
2023-02-23T00:15:45.911Z,0
2023-02-23T00:16:46.091Z,0
2023-02-23T00:17:45.894Z,0
2023-02-23T00:18:46.040Z,0
2023-02-23T00:19:46.447Z,0
2023-02-23T00:20:45.893Z,0
2023-02-23T00:21:48.766Z,0
2023-02-23T00:22:45.929Z,0
2023-02-23T00:23:45.886Z,0
2023-02-23T00:24:45.905Z,0
2023-02-23T00:25:45.982Z,0
2023-02-23T00:26:45.899Z,0
2023-02-23T00:27:45.926Z,0
2023-02-23T00:28:46.014Z,0
2023-02-23T00:29:45.892Z,0
2023-02-23T00:30:46.113Z,0
2023-02-23T00:31:46.344Z,0
2023-02-23T00:32:46.571Z,0
2023-02-23T00:33:45.902Z,0
2023-02-23T00:34:45.952Z,0
2023-02-23T00:35:45.972Z,0
2023-02-23T00:36:45.961Z,0
2023-02-23T00:37:45.950Z,0
2023-02-23T00:38:45.962Z,0
2023-02-23T00:39:45.947Z,0
2023-02-23T00:40:45.945Z,0
2023-02-23T00:41:46.146Z,0
2023-02-23T00:42:45.957Z,0
2023-02-23T00:43:48.992Z,0
2023-02-23T00:44:45.943Z,0
2023-02-23T00:45:46.117Z,0
2023-02-23T00:46:45.949Z,0
2023-02-23T00:47:45.957Z,0
2023-02-23T00:48:48.932Z,0
2023-02-23T00:49:45.933Z,0
2023-02-23T00:50:45.938Z,0
2023-02-23T00:51:45.959Z,0
2023-02-23T00:52:45.945Z,0
2023-02-23T00:53:45.956Z,0
2023-02-23T00:54:46.002Z,0
2023-02-23T00:55:45.954Z,0
2023-02-23T00:56:47.181Z,0
2023-02-23T00:57:45.975Z,0
2023-02-23T00:58:45.969Z,0
2023-02-23T00:59:45.972Z,0
2023-02-23T01:00:45.931Z,0
2023-02-23T01:01:46.414Z,0
2023-02-23T01:02:46.238Z,0
2023-02-23T01:03:46.176Z,0
2023-02-23T01:04:45.983Z,0
2023-02-23T01:05:45.942Z,0
2023-02-23T01:06:46.070Z,0
2023-02-23T01:07:45.980Z,0
2023-02-23T01:08:46.978Z,0
2023-02-23T01:09:45.997Z,0
2023-02-23T01:10:46.001Z,0
2023-02-23T01:11:46.313Z,0
2023-02-23T01:12:46.043Z,0
2023-02-23T01:13:46.020Z,0
2023-02-23T01:14:45.986Z,0
2023-02-23T01:15:48.907Z,0
2023-02-23T01:16:46.110Z,0
2023-02-23T01:17:46.197Z,0
2023-02-23T01:18:46.116Z,0
2023-02-23T01:19:49.308Z,0
2023-02-23T01:20:47.240Z,0
2023-02-23T01:21:52.425Z,0
2023-02-23T01:22:45.996Z,0
2023-02-23T01:23:46.018Z,0
2023-02-23T01:24:46.020Z,0
2023-02-23T01:25:46.035Z,0
2023-02-23T01:26:49.044Z,0
2023-02-23T01:27:46.076Z,0
2023-02-23T01:28:45.997Z,0
2023-02-23T01:29:46.113Z,0
2023-02-23T01:30:46.341Z,0
2023-02-23T01:31:49.401Z,0
2023-02-23T01:32:46.036Z,0
2023-02-23T01:33:46.037Z,0
2023-02-23T01:34:46.026Z,0
2023-02-23T01:35:45.988Z,0
2023-02-23T01:36:46.034Z,0
2023-02-23T01:37:48.949Z,0
2023-02-23T01:38:45.987Z,0
2023-02-23T01:39:46.061Z,0
2023-02-23T01:40:46.006Z,0
2023-02-23T01:41:46.050Z,0
2023-02-23T01:42:48.920Z,0
2023-02-23T01:43:45.996Z,0
2023-02-23T01:44:46.029Z,0
2023-02-23T01:45:46.204Z,0
2023-02-23T01:46:46.317Z,0
2023-02-23T01:47:46.112Z,0
2023-02-23T01:48:48.815Z,0
2023-02-23T01:49:46.096Z,0
2023-02-23T01:50:46.116Z,0
2023-02-23T01:51:46.014Z,0
2023-02-23T01:52:46.054Z,0
2023-02-23T01:53:49.175Z,0
2023-02-23T01:54:46.034Z,0
2023-02-23T01:55:46.040Z,0
2023-02-23T01:56:46.054Z,0
2023-02-23T01:57:46.075Z,0
2023-02-23T01:58:46.060Z,0
2023-02-23T01:59:49.198Z,0
2023-02-23T02:00:48.886Z,0
2023-02-23T02:01:46.319Z,0
2023-02-23T02:02:46.106Z,0
2023-02-23T02:03:46.062Z,0
2023-02-23T02:04:49.659Z,0
2023-02-23T02:05:46.045Z,0
2023-02-23T02:06:46.165Z,0
2023-02-23T02:07:46.095Z,0
2023-02-23T02:08:46.037Z,0
2023-02-23T02:09:46.047Z,0
2023-02-23T02:10:48.857Z,0
2023-02-23T02:11:46.138Z,0
2023-02-23T02:12:46.051Z,0
2023-02-23T02:13:46.160Z,0
2023-02-23T02:14:46.033Z,0
2023-02-23T02:15:49.200Z,0
2023-02-23T02:16:46.072Z,0
2023-02-23T02:17:46.150Z,0
2023-02-23T02:18:46.073Z,0
2023-02-23T02:19:46.067Z,0
2023-02-23T02:20:46.055Z,0
2023-02-23T02:21:48.944Z,0
2023-02-23T02:22:46.159Z,0
2023-02-23T02:23:46.197Z,0
2023-02-23T02:24:46.152Z,0
2023-02-23T02:25:46.097Z,0
2023-02-23T02:26:49.166Z,0
2023-02-23T02:27:46.135Z,0
2023-02-23T02:28:46.182Z,0
2023-02-23T02:29:46.134Z,0
2023-02-23T02:30:46.323Z,0
2023-02-23T02:31:46.718Z,0
2023-02-23T02:32:49.059Z,0
2023-02-23T02:33:46.124Z,0
2023-02-23T02:34:46.083Z,0
2023-02-23T02:35:46.144Z,0
2023-02-23T02:36:46.164Z,0
2023-02-23T02:37:49.229Z,0
2023-02-23T02:38:46.121Z,0
2023-02-23T02:39:46.102Z,0
2023-02-23T02:40:46.098Z,0
2023-02-23T02:41:46.109Z,0
2023-02-23T02:42:46.180Z,0
2023-02-23T02:43:46.164Z,0
2023-02-23T02:44:46.093Z,0
2023-02-23T02:45:46.111Z,0
2023-02-23T02:46:46.128Z,0
2023-02-23T02:47:46.157Z,0
2023-02-23T02:48:49.143Z,0
2023-02-23T02:49:46.198Z,0
2023-02-23T02:50:46.121Z,0
2023-02-23T02:51:46.127Z,0
2023-02-23T02:52:46.105Z,0
2023-02-23T02:53:46.216Z,0
2023-02-23T02:54:46.113Z,0
2023-02-23T02:55:46.089Z,0
2023-02-23T02:56:46.114Z,0
2023-02-23T02:57:46.148Z,0
2023-02-23T02:58:46.134Z,0
2023-02-23T02:59:48.961Z,0
2023-02-23T03:00:46.114Z,0
2023-02-23T03:01:46.372Z,0
2023-02-23T03:02:46.194Z,0
2023-02-23T03:03:46.155Z,0
2023-02-23T03:04:46.129Z,0
2023-02-23T03:05:46.155Z,0
2023-02-23T03:06:46.134Z,0
2023-02-23T03:07:46.229Z,0
2023-02-23T03:08:46.164Z,0
2023-02-23T03:09:46.148Z,0
2023-02-23T03:10:49.203Z,0
2023-02-23T03:11:46.137Z,0
2023-02-23T03:12:46.144Z,0
2023-02-23T03:13:46.156Z,0
2023-02-23T03:14:46.139Z,0
2023-02-23T03:15:49.164Z,0
2023-02-23T03:16:46.143Z,0
2023-02-23T03:17:46.160Z,0
2023-02-23T03:18:46.191Z,0
2023-02-23T03:19:46.389Z,0
2023-02-23T03:20:46.145Z,0
2023-02-23T03:21:46.228Z,0
2023-02-23T03:22:46.221Z,0
2023-02-23T03:23:46.330Z,0
2023-02-23T03:24:46.143Z,0
2023-02-23T03:25:46.192Z,0
2023-02-23T03:26:46.149Z,0
2023-02-23T03:27:46.471Z,0
2023-02-23T03:28:46.234Z,0
2023-02-23T03:29:46.216Z,0
2023-02-23T03:30:46.406Z,0
2023-02-23T03:31:46.651Z,0
2023-02-23T03:32:46.300Z,0
2023-02-23T03:33:46.255Z,0
2023-02-23T03:34:46.149Z,0
2023-02-23T03:35:46.212Z,0
2023-02-23T03:36:46.272Z,0
2023-02-23T03:37:46.302Z,0
2023-02-23T03:38:46.237Z,0
2023-02-23T03:39:46.212Z,0
2023-02-23T03:40:46.193Z,0
2023-02-23T03:41:46.406Z,0
2023-02-23T03:42:49.014Z,0
2023-02-23T03:43:46.215Z,0
2023-02-23T03:44:46.187Z,0
2023-02-23T03:45:46.423Z,0
2023-02-23T03:46:46.210Z,0
2023-02-23T03:47:46.279Z,0
2023-02-23T03:48:46.231Z,0
2023-02-23T03:49:46.206Z,0
2023-02-23T03:50:46.219Z,0
2023-02-23T03:51:46.257Z,0
2023-02-23T03:52:46.190Z,0
2023-02-23T03:53:49.020Z,0
2023-02-23T03:54:46.206Z,0
2023-02-23T03:55:46.214Z,0
2023-02-23T03:56:46.197Z,0
2023-02-23T03:57:46.241Z,0
2023-02-23T03:58:50.117Z,0
2023-02-23T03:59:46.210Z,0
2023-02-23T04:00:46.209Z,0
2023-02-23T04:01:46.414Z,0
2023-02-23T04:02:46.229Z,0
2023-02-23T04:03:46.477Z,0
2023-02-23T04:04:49.241Z,0
2023-02-23T04:05:46.229Z,0
2023-02-23T04:06:46.264Z,0
2023-02-23T04:07:46.267Z,0
2023-02-23T04:08:46.281Z,0
2023-02-23T04:09:49.259Z,0
2023-02-23T04:10:46.276Z,0
2023-02-23T04:11:46.270Z,0
2023-02-23T04:12:46.216Z,0
2023-02-23T04:13:46.432Z,0
2023-02-23T04:14:46.256Z,0
2023-02-23T04:15:49.246Z,0
2023-02-23T04:16:46.449Z,0
2023-02-23T04:17:46.251Z,0
2023-02-23T04:18:46.300Z,0
2023-02-23T04:19:46.243Z,0
2023-02-23T04:20:49.278Z,0
2023-02-23T04:21:46.276Z,0
2023-02-23T04:22:46.273Z,0
2023-02-23T04:23:46.471Z,0
2023-02-23T04:24:46.256Z,0
2023-02-23T04:25:46.274Z,0
2023-02-23T04:26:49.026Z,0
2023-02-23T04:27:46.476Z,0
2023-02-23T04:28:46.268Z,0
2023-02-23T04:29:46.296Z,0
2023-02-23T04:30:46.438Z,0
2023-02-23T04:31:49.825Z,0
2023-02-23T04:32:47.120Z,0
2023-02-23T04:33:46.285Z,0
2023-02-23T04:34:46.239Z,0
2023-02-23T04:35:46.310Z,0
2023-02-23T04:36:46.280Z,0
2023-02-23T04:37:49.271Z,0
2023-02-23T04:38:46.329Z,0
2023-02-23T04:39:46.394Z,0
2023-02-23T04:40:46.318Z,0
2023-02-23T04:41:46.312Z,0
2023-02-23T04:42:49.361Z,0
2023-02-23T04:43:46.348Z,0
2023-02-23T04:44:46.276Z,0
2023-02-23T04:45:46.548Z,0
2023-02-23T04:46:46.284Z,0
2023-02-23T04:47:46.294Z,0
2023-02-23T04:48:49.140Z,0
2023-02-23T04:49:46.284Z,0
2023-02-23T04:50:46.270Z,0
2023-02-23T04:51:46.258Z,0
2023-02-23T04:52:46.297Z,0
2023-02-23T04:53:47.869Z,0
2023-02-23T04:54:46.335Z,0
2023-02-23T04:55:48.837Z,0
2023-02-23T04:56:46.313Z,0
2023-02-23T04:57:46.334Z,0
2023-02-23T04:58:46.326Z,0
2023-02-23T04:59:49.334Z,0
2023-02-23T05:00:46.315Z,0
2023-02-23T05:01:46.589Z,0
2023-02-23T05:02:46.288Z,0
2023-02-23T05:03:46.351Z,0
2023-02-23T05:04:49.513Z,0
2023-02-23T05:05:46.281Z,0
2023-02-23T05:06:46.287Z,0
2023-02-23T05:07:46.343Z,0
2023-02-23T05:08:46.337Z,0
2023-02-23T05:09:48.058Z,0
2023-02-23T05:10:50.411Z,0
2023-02-23T05:11:46.356Z,0
2023-02-23T05:12:46.354Z,0
2023-02-23T05:13:46.354Z,0
2023-02-23T05:14:46.335Z,0
2023-02-23T05:15:49.715Z,0
2023-02-23T05:16:46.345Z,0
2023-02-23T05:17:46.350Z,0
2023-02-23T05:18:46.358Z,0
2023-02-23T05:19:46.419Z,0
2023-02-23T05:20:46.335Z,0
2023-02-23T05:21:46.353Z,0
2023-02-23T05:22:46.351Z,0
2023-02-23T05:23:46.352Z,0
2023-02-23T05:24:46.335Z,0
2023-02-23T05:25:46.334Z,0
2023-02-23T05:26:49.254Z,0
2023-02-23T05:27:46.339Z,0
2023-02-23T05:28:46.377Z,0
2023-02-23T05:29:46.416Z,0
2023-02-23T05:30:46.974Z,0
2023-02-23T05:31:46.976Z,0
2023-02-23T05:32:46.367Z,0
2023-02-23T05:33:46.527Z,0
2023-02-23T05:34:46.358Z,0
2023-02-23T05:35:46.361Z,0
2023-02-23T05:36:46.356Z,0
2023-02-23T05:37:49.196Z,0
2023-02-23T05:38:46.601Z,0
2023-02-23T05:39:46.353Z,0
2023-02-23T05:40:46.418Z,0
2023-02-23T05:41:46.404Z,0
2023-02-23T05:42:49.387Z,0
2023-02-23T05:43:46.344Z,0
2023-02-23T05:44:46.383Z,0
2023-02-23T05:45:46.387Z,0
2023-02-23T05:46:46.391Z,0
2023-02-23T05:47:46.374Z,0
2023-02-23T05:48:46.368Z,0
2023-02-23T05:49:46.388Z,0
2023-02-23T05:50:46.360Z,0
2023-02-23T05:51:46.348Z,0
2023-02-23T05:52:46.392Z,0
2023-02-23T05:53:46.380Z,0
2023-02-23T05:54:46.397Z,0
2023-02-23T05:55:46.371Z,0
2023-02-23T05:56:46.350Z,0
2023-02-23T05:57:46.358Z,0
2023-02-23T05:58:46.452Z,0
2023-02-23T05:59:46.371Z,0
2023-02-23T06:00:46.379Z,0
2023-02-23T06:01:46.401Z,0
2023-02-23T06:02:46.786Z,4
2023-02-23T06:03:46.631Z,4
2023-02-23T06:04:46.429Z,0
2023-02-23T06:05:46.769Z,0
2023-02-23T06:06:46.428Z,0
2023-02-23T06:07:46.376Z,4
2023-02-23T06:08:46.406Z,4
2023-02-23T06:09:49.190Z,0
2023-02-23T06:10:46.395Z,0
2023-02-23T06:11:46.426Z,4
2023-02-23T06:12:46.389Z,4
2023-02-23T06:13:46.412Z,4
2023-02-23T06:14:46.478Z,4
2023-02-23T06:15:46.622Z,4
2023-02-23T06:16:47.010Z,4
2023-02-23T06:17:46.414Z,8
2023-02-23T06:18:46.481Z,4
2023-02-23T06:19:46.405Z,8
2023-02-23T06:20:50.153Z,4
2023-02-23T06:21:46.388Z,4
2023-02-23T06:22:46.455Z,8
2023-02-23T06:23:46.407Z,8
2023-02-23T06:24:46.447Z,8
2023-02-23T06:25:49.532Z,8
2023-02-23T06:26:48.999Z,8
2023-02-23T06:27:46.424Z,12
2023-02-23T06:28:46.450Z,12
2023-02-23T06:29:46.425Z,12
2023-02-23T06:30:46.729Z,12
2023-02-23T06:31:50.220Z,16
2023-02-23T06:32:46.524Z,16
2023-02-23T06:33:46.467Z,12
2023-02-23T06:34:46.458Z,16
2023-02-23T06:35:46.418Z,16
2023-02-23T06:36:49.708Z,20
2023-02-23T06:37:46.453Z,16
2023-02-23T06:38:46.462Z,20
2023-02-23T06:39:46.427Z,20
2023-02-23T06:40:46.445Z,24
2023-02-23T06:41:46.553Z,24
2023-02-23T06:42:49.460Z,24
2023-02-23T06:43:46.551Z,24
2023-02-23T06:44:46.456Z,28
2023-02-23T06:45:46.435Z,24
2023-02-23T06:46:46.669Z,28
2023-02-23T06:47:49.492Z,32
2023-02-23T06:48:46.452Z,32
2023-02-23T06:49:46.439Z,32
2023-02-23T06:50:46.458Z,36
2023-02-23T06:51:46.441Z,36
2023-02-23T06:52:46.505Z,40
2023-02-23T06:53:47.288Z,40
2023-02-23T06:54:46.549Z,40
2023-02-23T06:55:46.448Z,40
2023-02-23T06:56:46.378Z,44
2023-02-23T06:57:46.442Z,48
2023-02-23T06:58:49.478Z,48
2023-02-23T06:59:46.440Z,52
2023-02-23T07:00:46.497Z,52
2023-02-23T07:01:46.617Z,56
2023-02-23T07:02:46.478Z,60
2023-02-23T07:03:46.406Z,60
2023-02-23T07:04:49.381Z,56
2023-02-23T07:05:46.565Z,60
2023-02-23T07:06:46.491Z,60
2023-02-23T07:07:46.738Z,56
2023-02-23T07:08:46.559Z,56
2023-02-23T07:09:49.544Z,56
2023-02-23T07:10:46.577Z,52
2023-02-23T07:11:46.500Z,52
2023-02-23T07:12:46.569Z,52
2023-02-23T07:13:46.567Z,52
2023-02-23T07:14:46.646Z,52
2023-02-23T07:15:49.335Z,52
2023-02-23T07:16:46.753Z,56
2023-02-23T07:17:46.612Z,56
2023-02-23T07:18:46.605Z,56
2023-02-23T07:19:46.674Z,56
2023-02-23T07:20:49.478Z,56
2023-02-23T07:21:46.733Z,56
2023-02-23T07:22:47.117Z,56
2023-02-23T07:23:46.518Z,56
2023-02-23T07:24:46.543Z,56
2023-02-23T07:25:46.517Z,56
2023-02-23T07:26:46.477Z,56
2023-02-23T07:27:46.530Z,60
2023-02-23T07:28:46.481Z,60
2023-02-23T07:29:46.566Z,56
2023-02-23T07:30:46.605Z,56
2023-02-23T07:31:50.122Z,56
2023-02-23T07:32:46.737Z,52
2023-02-23T07:33:46.527Z,56
2023-02-23T07:34:46.539Z,56
2023-02-23T07:35:46.476Z,56
2023-02-23T07:36:46.501Z,52
2023-02-23T07:37:46.548Z,52
2023-02-23T07:38:46.558Z,52
2023-02-23T07:39:46.513Z,52
2023-02-23T07:40:46.534Z,52
2023-02-23T07:41:46.510Z,56
2023-02-23T07:42:49.549Z,56
2023-02-23T07:43:46.707Z,56
2023-02-23T07:44:46.521Z,60
2023-02-23T07:45:48.839Z,56
2023-02-23T07:46:46.571Z,60
2023-02-23T07:47:46.565Z,64
2023-02-23T07:48:46.547Z,64
2023-02-23T07:49:46.539Z,68
2023-02-23T07:50:46.624Z,72
2023-02-23T07:51:46.749Z,72
2023-02-23T07:52:46.519Z,76
2023-02-23T07:53:50.470Z,80
2023-02-23T07:54:46.562Z,80
2023-02-23T07:55:46.539Z,84
2023-02-23T07:56:46.549Z,84
2023-02-23T07:57:46.508Z,84
2023-02-23T07:58:46.549Z,88
2023-02-23T07:59:46.571Z,92
2023-02-23T08:00:46.658Z,96
2023-02-23T08:01:46.560Z,104
2023-02-23T08:02:46.548Z,116
2023-02-23T08:03:46.551Z,124
2023-02-23T08:04:49.890Z,132
2023-02-23T08:05:46.563Z,144
2023-02-23T08:06:46.666Z,148
2023-02-23T08:07:46.532Z,160
2023-02-23T08:08:46.580Z,164
2023-02-23T08:09:47.598Z,172
2023-02-23T08:10:54.331Z,176
2023-02-23T08:11:46.586Z,176
2023-02-23T08:12:46.862Z,180
2023-02-23T08:13:46.572Z,180
2023-02-23T08:14:46.574Z,184
2023-02-23T08:15:46.587Z,188
2023-02-23T08:16:46.827Z,192
2023-02-23T08:17:46.597Z,192
2023-02-23T08:18:46.902Z,184
2023-02-23T08:19:46.570Z,180
2023-02-23T08:20:46.564Z,172
2023-02-23T08:21:46.571Z,168
2023-02-23T08:22:56.331Z,164
2023-02-23T08:23:46.578Z,160
2023-02-23T08:24:46.621Z,156
2023-02-23T08:25:46.774Z,148
2023-02-23T08:26:46.589Z,152
2023-02-23T08:27:46.583Z,148
2023-02-23T08:28:46.668Z,152
2023-02-23T08:29:46.583Z,152
2023-02-23T08:30:47.088Z,152
2023-02-23T08:31:47.475Z,148
2023-02-23T08:32:46.950Z,148
2023-02-23T08:33:46.620Z,148
2023-02-23T08:34:46.594Z,148
2023-02-23T08:35:46.617Z,144
2023-02-23T08:36:49.612Z,144
2023-02-23T08:37:46.604Z,140
2023-02-23T08:38:46.664Z,132
2023-02-23T08:39:48.230Z,120
2023-02-23T08:40:46.624Z,112
2023-02-23T08:41:46.655Z,100
2023-02-23T08:42:52.475Z,88
2023-02-23T08:43:46.603Z,84
2023-02-23T08:44:46.693Z,76
2023-02-23T08:45:46.637Z,68
2023-02-23T08:46:46.615Z,64
2023-02-23T08:47:49.761Z,60
2023-02-23T08:48:46.604Z,60
2023-02-23T08:49:46.647Z,60
2023-02-23T08:50:46.611Z,64
2023-02-23T08:51:46.591Z,64
2023-02-23T08:52:49.676Z,64
2023-02-23T08:53:46.620Z,68
2023-02-23T08:54:46.685Z,64
2023-02-23T08:55:46.606Z,64
2023-02-23T08:56:46.610Z,64
2023-02-23T08:57:47.155Z,60
2023-02-23T08:58:49.381Z,60
2023-02-23T08:59:46.666Z,60
2023-02-23T09:00:46.706Z,64
2023-02-23T09:01:46.867Z,68
2023-02-23T09:02:46.626Z,72
2023-02-23T09:03:49.418Z,76
2023-02-23T09:04:46.664Z,80
2023-02-23T09:05:47.104Z,84
2023-02-23T09:06:46.673Z,88
2023-02-23T09:07:46.660Z,88
2023-02-23T09:08:46.630Z,92
2023-02-23T09:09:49.713Z,100
2023-02-23T09:10:46.665Z,108
2023-02-23T09:11:46.628Z,104
2023-02-23T09:12:46.675Z,108
2023-02-23T09:13:46.703Z,100
2023-02-23T09:14:49.971Z,100
2023-02-23T09:15:46.924Z,96
2023-02-23T09:16:46.803Z,96
2023-02-23T09:17:46.648Z,96
2023-02-23T09:18:46.679Z,100
2023-02-23T09:19:46.696Z,104
2023-02-23T09:20:49.722Z,100
2023-02-23T09:21:46.652Z,96
2023-02-23T09:22:46.684Z,88
2023-02-23T09:23:46.667Z,88
2023-02-23T09:24:46.703Z,88
2023-02-23T09:25:49.645Z,84
2023-02-23T09:26:48.967Z,84
2023-02-23T09:27:46.696Z,76
2023-02-23T09:28:46.718Z,72
2023-02-23T09:29:47.056Z,72
2023-02-23T09:30:46.842Z,68
2023-02-23T09:31:49.908Z,64
2023-02-23T09:32:47.006Z,68
2023-02-23T09:33:46.694Z,68
2023-02-23T09:34:46.708Z,68
2023-02-23T09:35:46.664Z,72
2023-02-23T09:36:49.510Z,76
2023-02-23T09:37:46.689Z,80
2023-02-23T09:38:46.714Z,84
2023-02-23T09:39:46.784Z,92
2023-02-23T09:40:46.688Z,104
2023-02-23T09:41:46.792Z,116
2023-02-23T09:42:49.522Z,128
2023-02-23T09:43:46.702Z,132
2023-02-23T09:44:46.710Z,144
2023-02-23T09:45:47.108Z,156
2023-02-23T09:46:46.703Z,164
2023-02-23T09:47:49.525Z,176
2023-02-23T09:48:46.717Z,180
2023-02-23T09:49:46.745Z,184
2023-02-23T09:50:46.765Z,180
2023-02-23T09:51:46.751Z,172
2023-02-23T09:52:47.257Z,160
2023-02-23T09:53:50.638Z,152
2023-02-23T09:54:46.712Z,148
2023-02-23T09:55:46.733Z,144
2023-02-23T09:56:46.759Z,148
2023-02-23T09:57:46.825Z,152
2023-02-23T09:58:49.545Z,156
2023-02-23T09:59:46.420Z,156
2023-02-23T10:00:46.732Z,156
2023-02-23T10:01:46.988Z,152
2023-02-23T10:02:46.774Z,148
2023-02-23T10:03:46.825Z,140
2023-02-23T10:04:50.410Z,132
2023-02-23T10:05:46.717Z,128
2023-02-23T10:06:46.759Z,120
2023-02-23T10:07:46.736Z,116
2023-02-23T10:08:46.803Z,112
2023-02-23T10:09:50.002Z,116
2023-02-23T10:10:46.669Z,112
2023-02-23T10:11:48.765Z,108
2023-02-23T10:12:46.748Z,104
2023-02-23T10:13:46.797Z,112
2023-02-23T10:14:46.774Z,112
2023-02-23T10:15:47.058Z,116
2023-02-23T10:16:46.744Z,120
2023-02-23T10:17:46.823Z,120
2023-02-23T10:18:54.117Z,124
2023-02-23T10:19:46.813Z,124
2023-02-23T10:20:49.562Z,124
2023-02-23T10:21:46.795Z,124
2023-02-23T10:22:46.760Z,124
2023-02-23T10:23:46.809Z,124
2023-02-23T10:24:46.833Z,124
2023-02-23T10:25:46.824Z,124
2023-02-23T10:26:46.772Z,120
2023-02-23T10:27:46.816Z,120
2023-02-23T10:28:49.134Z,120
2023-02-23T10:29:46.804Z,116
2023-02-23T10:30:47.006Z,116
2023-02-23T10:31:51.386Z,112
2023-02-23T10:32:46.955Z,112
2023-02-23T10:33:46.870Z,112
2023-02-23T10:34:46.825Z,112
2023-02-23T10:35:46.807Z,112
2023-02-23T10:36:46.824Z,116
2023-02-23T10:37:46.790Z,116
2023-02-23T10:38:46.814Z,120
2023-02-23T10:39:47.904Z,124
2023-02-23T10:40:46.813Z,128
2023-02-23T10:41:46.834Z,128
2023-02-23T10:42:46.994Z,128
2023-02-23T10:43:46.849Z,132
2023-02-23T10:44:46.874Z,132
2023-02-23T10:45:46.816Z,136
2023-02-23T10:46:47.177Z,140
2023-02-23T10:47:46.807Z,144
2023-02-23T10:48:47.168Z,144
2023-02-23T10:49:46.872Z,148
2023-02-23T10:50:47.000Z,148
2023-02-23T10:51:46.772Z,156
2023-02-23T10:52:49.662Z,160
2023-02-23T10:53:46.689Z,160
2023-02-23T10:54:46.889Z,164
2023-02-23T10:55:46.848Z,164
2023-02-23T10:56:46.815Z,168
2023-02-23T10:57:47.161Z,168
2023-02-23T10:58:46.884Z,168
2023-02-23T10:59:46.871Z,172
2023-02-23T11:00:46.901Z,176
2023-02-23T11:02:06.843Z,180
2023-02-23T11:02:47.045Z,180
2023-02-23T11:04:06.122Z,188
2023-02-23T11:04:47.012Z,184
2023-02-23T11:05:46.952Z,188
2023-02-23T11:06:46.883Z,192
2023-02-23T11:07:46.817Z,188
2023-02-23T11:08:46.854Z,188
2023-02-23T11:09:58.495Z,188
2023-02-23T11:10:46.847Z,184
2023-02-23T11:11:46.834Z,180
2023-02-23T11:12:47.083Z,172
2023-02-23T11:13:46.960Z,164
2023-02-23T11:14:51.666Z,152
2023-02-23T11:16:00.794Z,140
2023-02-23T11:16:47.044Z,144
2023-02-23T11:17:46.911Z,144
2023-02-23T11:18:46.865Z,140
2023-02-23T11:19:51.031Z,136
2023-02-23T11:20:46.888Z,132
2023-02-23T11:21:47.154Z,128
2023-02-23T11:22:46.913Z,124
2023-02-23T11:23:47.035Z,128
2023-02-23T11:24:46.932Z,128
2023-02-23T11:25:51.818Z,132
2023-02-23T11:26:47.554Z,128
2023-02-23T11:27:46.869Z,128
2023-02-23T11:28:46.892Z,132
2023-02-23T11:29:46.870Z,132
2023-02-23T11:30:51.300Z,132
2023-02-23T11:31:47.428Z,140
2023-02-23T11:32:47.190Z,144
2023-02-23T11:33:46.894Z,152
2023-02-23T11:34:46.875Z,156
2023-02-23T11:35:49.957Z,164
2023-02-23T11:36:49.693Z,176
2023-02-23T11:37:46.914Z,184
2023-02-23T11:38:47.004Z,196
2023-02-23T11:39:46.873Z,200
2023-02-23T11:40:46.915Z,200
2023-02-23T11:41:49.692Z,192
2023-02-23T11:42:46.897Z,188
2023-02-23T11:43:46.969Z,184
2023-02-23T11:44:46.889Z,180
2023-02-23T11:45:49.106Z,180
2023-02-23T11:46:47.159Z,180
2023-02-23T11:47:50.056Z,184
2023-02-23T11:48:46.918Z,184
2023-02-23T11:49:46.900Z,184
2023-02-23T11:50:47.011Z,184
2023-02-23T11:51:46.913Z,184
2023-02-23T11:52:50.032Z,180
2023-02-23T11:53:46.998Z,180
2023-02-23T11:54:47.057Z,180
2023-02-23T11:55:46.936Z,180
2023-02-23T11:56:46.941Z,180
2023-02-23T11:57:46.915Z,180
2023-02-23T11:58:49.817Z,176
2023-02-23T11:59:49.012Z,168
2023-02-23T12:00:46.954Z,164
2023-02-23T12:01:46.928Z,160
2023-02-23T12:02:47.112Z,152
2023-02-23T12:03:49.906Z,144
2023-02-23T12:04:47.229Z,140
2023-02-23T12:05:46.938Z,132
2023-02-23T12:06:47.287Z,132
2023-02-23T12:07:46.963Z,136
2023-02-23T12:08:46.973Z,140
2023-02-23T12:09:49.745Z,140
2023-02-23T12:10:47.316Z,136
2023-02-23T12:11:48.766Z,136
2023-02-23T12:12:46.936Z,136
2023-02-23T12:13:46.958Z,136
2023-02-23T12:14:49.804Z,140
2023-02-23T12:15:46.989Z,140
2023-02-23T12:16:48.296Z,144
2023-02-23T12:17:46.982Z,144
2023-02-23T12:18:46.936Z,148
2023-02-23T12:19:47.116Z,152
2023-02-23T12:20:46.835Z,160
2023-02-23T12:21:46.965Z,160
2023-02-23T12:22:46.965Z,164
2023-02-23T12:23:50.835Z,164
2023-02-23T12:24:46.995Z,164
2023-02-23T12:25:50.086Z,160
2023-02-23T12:26:46.976Z,156
2023-02-23T12:27:47.972Z,152
2023-02-23T12:28:47.044Z,148
2023-02-23T12:29:47.042Z,140
2023-02-23T12:30:47.134Z,136
2023-02-23T12:31:50.495Z,132
2023-02-23T12:32:47.062Z,132
2023-02-23T12:33:46.975Z,132
2023-02-23T12:34:46.979Z,136
2023-02-23T12:35:47.053Z,144
2023-02-23T12:36:49.794Z,152
2023-02-23T12:37:46.956Z,160
2023-02-23T12:38:47.131Z,168
2023-02-23T12:39:47.011Z,176
2023-02-23T12:40:47.047Z,180
2023-02-23T12:41:47.102Z,188
2023-02-23T12:42:47.003Z,192
2023-02-23T12:43:46.999Z,196
2023-02-23T12:44:47.009Z,200
2023-02-23T12:45:47.061Z,200
2023-02-23T12:46:46.987Z,200
2023-02-23T12:47:49.762Z,200
2023-02-23T12:48:46.996Z,200
2023-02-23T12:49:47.008Z,200
2023-02-23T12:50:47.023Z,204
2023-02-23T12:51:47.093Z,212
2023-02-23T12:52:46.997Z,220
2023-02-23T12:53:47.015Z,232
2023-02-23T12:54:47.047Z,248
2023-02-23T12:55:46.992Z,264
2023-02-23T12:56:47.251Z,288
2023-02-23T12:57:46.816Z,312
2023-02-23T12:58:50.065Z,332
2023-02-23T12:59:47.179Z,348
2023-02-23T13:00:48.478Z,360
2023-02-23T13:01:47.073Z,372
2023-02-23T13:02:47.308Z,380
2023-02-23T13:03:47.031Z,380
2023-02-23T13:04:47.019Z,372
2023-02-23T13:05:47.056Z,364
2023-02-23T13:06:47.089Z,356
2023-02-23T13:07:46.883Z,352
2023-02-23T13:08:47.065Z,344
2023-02-23T13:09:47.031Z,332
2023-02-23T13:10:47.029Z,324
2023-02-23T13:11:47.090Z,316
2023-02-23T13:12:47.252Z,308
2023-02-23T13:13:47.293Z,296
2023-02-23T13:14:47.079Z,284
2023-02-23T13:15:46.890Z,276
2023-02-23T13:16:47.268Z,264
2023-02-23T13:17:47.063Z,256
2023-02-23T13:18:47.054Z,256
2023-02-23T13:19:47.121Z,248
2023-02-23T13:20:47.127Z,240
2023-02-23T13:21:47.086Z,236
2023-02-23T13:22:47.052Z,232
2023-02-23T13:23:47.087Z,220
2023-02-23T13:24:47.056Z,212
2023-02-23T13:25:47.039Z,204
2023-02-23T13:26:47.080Z,196
2023-02-23T13:27:47.176Z,188
2023-02-23T13:28:47.077Z,180
2023-02-23T13:29:47.314Z,168
2023-02-23T13:30:51.283Z,160
2023-02-23T13:31:48.005Z,156
2023-02-23T13:32:47.439Z,148
2023-02-23T13:33:51.344Z,140
2023-02-23T13:34:47.066Z,140
2023-02-23T13:35:47.087Z,136
2023-02-23T13:36:47.082Z,128
2023-02-23T13:37:48.276Z,120
2023-02-23T13:38:47.111Z,112
2023-02-23T13:39:47.131Z,100
2023-02-23T13:40:47.243Z,92
2023-02-23T13:41:49.876Z,88
2023-02-23T13:42:47.089Z,84
2023-02-23T13:43:47.093Z,84
2023-02-23T13:44:47.217Z,80
2023-02-23T13:45:47.193Z,80
2023-02-23T13:46:48.396Z,80
2023-02-23T13:47:47.092Z,80
2023-02-23T13:49:09.892Z,76
2023-02-23T13:49:47.165Z,76
2023-02-23T13:50:47.071Z,72
2023-02-23T13:51:47.187Z,68
2023-02-23T13:52:50.045Z,64
2023-02-23T13:53:47.192Z,68
2023-02-23T13:54:47.090Z,68
2023-02-23T13:55:56.609Z,72
2023-02-23T13:56:47.253Z,76
2023-02-23T13:57:50.186Z,80
2023-02-23T13:58:47.120Z,84
2023-02-23T13:59:47.251Z,88
2023-02-23T14:00:47.155Z,88
2023-02-23T14:01:48.034Z,88
2023-02-23T14:02:47.762Z,88
2023-02-23T14:03:50.229Z,92
2023-02-23T14:04:47.394Z,92
2023-02-23T14:05:47.140Z,92
2023-02-23T14:06:47.180Z,92
2023-02-23T14:07:47.162Z,92
2023-02-23T14:08:50.362Z,88
2023-02-23T14:09:47.144Z,84
2023-02-23T14:10:47.140Z,84
2023-02-23T14:11:47.296Z,80
2023-02-23T14:12:47.168Z,80
2023-02-23T14:13:47.138Z,76
2023-02-23T14:14:50.159Z,76
2023-02-23T14:15:47.131Z,76
2023-02-23T14:16:47.519Z,72
2023-02-23T14:17:47.229Z,76
2023-02-23T14:18:47.167Z,76
2023-02-23T14:19:50.064Z,80